createdAt,value
2023-05-09T00:04:39.526Z,10.65
2023-05-09T00:09:36.103Z,10.73
2023-05-09T00:14:33.203Z,10.46
2023-05-09T00:19:29.730Z,10.44
2023-05-09T00:24:28.080Z,10.45
2023-05-09T00:29:24.833Z,10.48
2023-05-09T00:34:21.450Z,10.50
2023-05-09T00:39:18.146Z,10.48
2023-05-09T00:44:15.702Z,10.55
2023-05-09T00:49:12.404Z,10.41
2023-05-09T00:54:11.094Z,10.31
2023-05-09T00:59:08.552Z,10.49
2023-05-09T01:04:06.024Z,10.66
2023-05-09T01:09:07.755Z,10.74
2023-05-09T01:14:08.096Z,10.52
2023-05-09T01:19:12.242Z,10.63
2023-05-09T01:24:29.716Z,10.70
2023-05-09T01:29:31.754Z,10.49
2023-05-09T01:34:28.822Z,10.64
2023-05-09T01:39:26.892Z,10.79
2023-05-09T01:44:25.383Z,10.67
2023-05-09T01:49:23.821Z,10.34
2023-05-09T01:54:22.123Z,10.21
2023-05-09T01:59:19.125Z,10.28
2023-05-09T02:04:16.492Z,10.36
2023-05-09T02:09:13.808Z,10.40
2023-05-09T02:14:10.619Z,10.33
2023-05-09T02:19:07.515Z,10.10
2023-05-09T02:24:06.629Z,10.04
2023-05-09T02:29:06.728Z,9.92
2023-05-09T02:34:04.594Z,10.11
2023-05-09T02:39:01.946Z,10.23
2023-05-09T02:43:59.478Z,10.20
2023-05-09T02:48:56.703Z,10.21
2023-05-09T02:53:53.896Z,10.59
2023-05-09T02:58:50.810Z,10.27
2023-05-09T03:03:47.411Z,10.12
2023-05-09T03:08:46.721Z,9.96
2023-05-09T03:13:43.361Z,9.99
2023-05-09T03:18:40.021Z,9.91
2023-05-09T03:23:36.873Z,10.04
2023-05-09T03:28:34.503Z,10.26
2023-05-09T03:33:34.567Z,10.25
2023-05-09T03:38:31.614Z,10.35
2023-05-09T03:43:28.692Z,10.30
2023-05-09T03:48:26.841Z,10.42
2023-05-09T03:53:23.509Z,10.43
2023-05-09T03:58:22.105Z,10.43
2023-05-09T04:03:18.988Z,10.27
2023-05-09T04:08:18.287Z,10.34
2023-05-09T04:13:15.916Z,10.68
2023-05-09T04:18:13.163Z,10.63
2023-05-09T04:23:10.008Z,10.49
2023-05-09T04:28:08.153Z,10.75
2023-05-09T04:33:04.930Z,10.81
2023-05-09T04:38:04.441Z,10.37
2023-05-09T04:43:01.342Z,10.68
2023-05-09T04:48:01.117Z,10.59
2023-05-09T04:52:58.922Z,10.43
2023-05-09T04:57:56.529Z,10.62
2023-05-09T05:02:53.487Z,11.02
2023-05-09T05:07:50.881Z,10.92
2023-05-09T05:12:51.486Z,10.80
2023-05-09T05:17:48.568Z,10.76
2023-05-09T05:22:48.467Z,11.20
2023-05-09T05:27:46.049Z,10.89
2023-05-09T05:32:43.717Z,10.76
2023-05-09T05:37:43.065Z,10.64
2023-05-09T05:42:40.425Z,10.75
2023-05-09T05:47:38.005Z,10.89
2023-05-09T05:52:37.188Z,11.17
2023-05-09T05:57:35.952Z,11.09
2023-05-09T06:02:35.340Z,11.00
2023-05-09T06:07:35.804Z,10.58
2023-05-09T06:12:33.272Z,10.56
2023-05-09T06:17:30.189Z,10.75
2023-05-09T06:22:28.405Z,10.57
2023-05-09T06:27:26.061Z,10.64
2023-05-09T06:32:24.526Z,10.81
2023-05-09T06:37:24.033Z,10.88
2023-05-09T06:42:20.843Z,10.90
2023-05-09T06:47:19.702Z,11.09
2023-05-09T06:52:16.491Z,11.40
2023-05-09T06:57:13.088Z,11.26
2023-05-09T07:02:09.786Z,11.11
2023-05-09T07:07:07.275Z,11.60
2023-05-09T07:12:04.339Z,11.79
2023-05-09T07:22:20.157Z,12.06
2023-05-09T07:27:17.028Z,12.29
2023-05-09T07:32:29.971Z,12.49
2023-05-09T07:37:27.439Z,12.25
2023-05-09T07:42:24.194Z,12.40
2023-05-09T07:47:24.070Z,12.05
2023-05-09T07:52:23.000Z,12.04
2023-05-09T07:57:20.530Z,11.82
2023-05-09T08:02:18.622Z,12.09
2023-05-09T08:07:15.278Z,12.24
2023-05-09T08:12:12.088Z,11.96
2023-05-09T08:17:09.690Z,11.96
2023-05-09T08:22:06.638Z,12.40
2023-05-09T08:27:09.056Z,12.65
2023-05-09T08:32:09.497Z,12.92
2023-05-09T08:37:07.360Z,12.34
2023-05-09T08:42:04.761Z,12.51
2023-05-09T08:47:02.356Z,12.75
2023-05-09T08:51:59.597Z,12.44
2023-05-09T08:56:58.499Z,12.68
2023-05-09T09:01:59.306Z,12.68
2023-05-09T09:06:56.170Z,12.62
2023-05-09T09:11:55.036Z,13.18
2023-05-09T09:16:54.312Z,13.39
2023-05-09T09:21:54.415Z,13.58
2023-05-09T09:26:51.143Z,13.69
2023-05-09T09:31:52.109Z,13.51
2023-05-09T09:36:49.679Z,13.74
2023-05-09T09:41:46.710Z,14.11
2023-05-09T09:46:44.632Z,13.78
2023-05-09T09:51:41.272Z,14.37
2023-05-09T09:56:40.017Z,13.99
2023-05-09T10:01:52.828Z,14.42
2023-05-09T10:06:53.128Z,14.56
2023-05-09T10:11:51.855Z,14.22
2023-05-09T10:16:49.225Z,14.09
2023-05-09T10:21:49.060Z,14.31
2023-05-09T10:26:46.351Z,14.45
2023-05-09T10:31:45.503Z,14.41
2023-05-09T10:36:42.746Z,14.39
2023-05-09T10:41:50.856Z,14.42
2023-05-09T10:46:48.621Z,14.26
2023-05-09T10:51:45.356Z,14.82
2023-05-09T10:56:42.129Z,14.42
2023-05-09T11:01:38.927Z,14.60
2023-05-09T11:06:48.864Z,14.66
2023-05-09T11:11:51.262Z,14.50
2023-05-09T11:16:57.269Z,14.60
2023-05-09T11:22:02.466Z,15.02
2023-05-09T11:26:59.343Z,15.33
2023-05-09T11:32:08.011Z,15.36
2023-05-09T11:37:11.411Z,15.46
2023-05-09T11:42:08.801Z,15.12
2023-05-09T11:47:05.556Z,15.31
2023-05-09T11:52:02.197Z,15.39
2023-05-09T11:56:59.944Z,15.52
2023-05-09T12:01:56.625Z,15.43
2023-05-09T12:06:53.201Z,14.82
2023-05-09T12:11:50.375Z,15.02
2023-05-09T12:16:47.655Z,15.15
2023-05-09T12:21:44.350Z,15.22
2023-05-09T12:26:41.128Z,15.41
2023-05-09T12:31:38.108Z,15.29
2023-05-09T12:36:35.975Z,15.58
2023-05-09T12:41:41.495Z,15.53
2023-05-09T12:46:52.834Z,15.52
2023-05-09T12:51:50.650Z,15.33
2023-05-09T12:56:47.585Z,15.63
2023-05-09T13:01:44.138Z,15.55
2023-05-09T13:06:47.954Z,15.36
2023-05-09T13:11:45.498Z,15.54
2023-05-09T13:16:43.201Z,15.24
2023-05-09T13:21:39.924Z,15.44
2023-05-09T13:26:36.534Z,15.16
2023-05-09T13:31:36.299Z,15.25
2023-05-09T13:36:35.024Z,15.21
2023-05-09T13:41:34.872Z,14.99
2023-05-09T13:46:33.177Z,15.00
2023-05-09T13:51:29.811Z,14.95
2023-05-09T13:56:26.457Z,15.12
2023-05-09T14:01:23.285Z,15.18
2023-05-09T14:06:20.654Z,15.20
2023-05-09T14:11:17.370Z,15.23
2023-05-09T14:16:14.070Z,15.55
2023-05-09T14:21:11.061Z,15.48
2023-05-09T14:26:11.123Z,15.12
2023-05-09T14:31:07.795Z,15.26
2023-05-09T14:36:07.478Z,15.21
2023-05-09T14:41:06.008Z,15.38
2023-05-09T14:46:03.364Z,14.98
2023-05-09T14:51:00.176Z,14.99
2023-05-09T14:55:56.685Z,15.20
2023-05-09T15:00:56.594Z,15.07
2023-05-09T15:05:54.087Z,15.21
2023-05-09T15:10:50.714Z,15.04
2023-05-09T15:15:47.236Z,14.97
2023-05-09T15:20:46.125Z,15.40
2023-05-09T15:25:43.856Z,14.91
2023-05-09T15:30:41.071Z,15.18
2023-05-09T15:35:39.631Z,15.34
2023-05-09T15:40:36.169Z,15.12
2023-05-09T15:45:37.261Z,15.06
2023-05-09T15:50:38.015Z,15.03
2023-05-09T15:55:34.843Z,14.75
2023-05-09T16:00:31.420Z,14.94
2023-05-09T16:05:28.909Z,15.12
2023-05-09T16:10:25.728Z,14.97
2023-05-09T16:15:26.503Z,14.95
2023-05-09T16:20:23.551Z,15.10
2023-05-09T16:25:23.100Z,14.78
2023-05-09T16:30:19.860Z,14.51
2023-05-09T16:35:16.708Z,14.57
2023-05-09T16:40:14.304Z,14.65
2023-05-09T16:45:12.315Z,14.68
2023-05-09T16:50:09.885Z,14.61
2023-05-09T16:55:07.639Z,14.46
2023-05-09T17:00:07.471Z,14.84
2023-05-09T17:05:05.450Z,14.49
2023-05-09T17:10:05.558Z,14.17
2023-05-09T17:15:02.420Z,14.04
2023-05-09T17:20:00.634Z,13.93
2023-05-09T17:24:58.267Z,13.64
2023-05-09T17:29:57.219Z,13.88
2023-05-09T17:34:57.252Z,13.86
2023-05-09T17:39:53.922Z,13.76
2023-05-09T17:44:54.967Z,13.66
2023-05-09T17:49:51.939Z,13.94
2023-05-09T17:54:48.521Z,13.67
2023-05-09T17:59:47.759Z,13.72
2023-05-09T18:04:45.846Z,13.45
2023-05-09T18:09:42.496Z,13.69
2023-05-09T18:14:39.159Z,13.59
2023-05-09T18:19:36.469Z,13.48
2023-05-09T18:24:33.950Z,13.31
2023-05-09T18:29:30.625Z,13.30
2023-05-09T18:34:27.791Z,13.61
2023-05-09T18:39:24.435Z,13.39
2023-05-09T18:44:21.634Z,12.98
2023-05-09T18:49:18.378Z,13.19
2023-05-09T18:54:18.160Z,13.29
2023-05-09T18:59:15.811Z,13.27
2023-05-09T19:04:14.321Z,13.40
2023-05-09T19:09:11.234Z,13.45
2023-05-09T19:14:07.942Z,13.55
2023-05-09T19:19:04.571Z,13.32
2023-05-09T19:24:02.034Z,13.19
2023-05-09T19:29:00.122Z,13.26
2023-05-09T19:33:56.698Z,12.97
2023-05-09T19:38:53.217Z,13.08
2023-05-09T19:43:50.774Z,13.33
2023-05-09T19:48:47.570Z,13.15
2023-05-09T19:53:44.531Z,13.30
2023-05-09T19:58:41.265Z,13.17
2023-05-09T20:03:40.379Z,13.38
2023-05-09T20:08:37.215Z,13.36
2023-05-09T20:13:36.399Z,13.18
2023-05-09T20:18:33.009Z,13.39
2023-05-09T20:23:30.753Z,13.31
2023-05-09T20:28:27.486Z,13.42
2023-05-09T20:33:24.117Z,13.05
2023-05-09T20:38:20.625Z,13.28
2023-05-09T20:43:18.514Z,13.00
2023-05-09T20:48:15.068Z,12.73
2023-05-09T20:53:11.657Z,12.62
2023-05-09T20:58:08.495Z,12.93
2023-05-09T21:03:06.039Z,12.95
2023-05-09T21:08:02.726Z,12.89
2023-05-09T21:12:59.454Z,13.12
2023-05-09T21:17:56.076Z,13.20
2023-05-09T21:22:53.545Z,13.11
2023-05-09T21:27:50.262Z,13.22
2023-05-09T21:32:46.831Z,13.22
2023-05-09T21:37:43.419Z,13.10
2023-05-09T21:42:41.253Z,12.65
2023-05-09T21:47:38.993Z,12.46
2023-05-09T21:52:35.623Z,12.38
2023-05-09T21:57:32.164Z,12.68
2023-05-09T22:02:29.487Z,12.80
2023-05-09T22:07:26.117Z,12.93
2023-05-09T22:12:22.832Z,12.76
2023-05-09T22:17:19.456Z,12.77
2023-05-09T22:22:17.892Z,12.71
2023-05-09T22:27:14.457Z,12.66
2023-05-09T22:32:11.119Z,12.45
2023-05-09T22:37:07.772Z,12.10
2023-05-09T22:42:05.046Z,12.00
2023-05-09T22:47:01.536Z,11.88
2023-05-09T22:51:58.247Z,12.00
2023-05-09T22:56:54.881Z,12.29
2023-05-09T23:01:53.082Z,12.52
2023-05-09T23:06:49.764Z,12.75
2023-05-09T23:11:46.648Z,12.97
2023-05-09T23:16:43.178Z,12.95
2023-05-09T23:21:40.468Z,12.62
2023-05-09T23:26:37.043Z,12.68
2023-05-09T23:31:33.695Z,12.29
2023-05-09T23:36:30.915Z,12.22
2023-05-09T23:41:28.158Z,12.36
2023-05-09T23:46:24.979Z,12.25
2023-05-09T23:51:24.914Z,12.25
2023-05-09T23:56:21.926Z,12.15
